Terminal Aerodrome Forecast
Issued by NWS Twin Cities, MN

Home | Current Version | Previous Version | Text Only | Print | Product List | Glossary Off
Versions: 1 2 3 4 5 6 7 8 9 10 11 12 13 14 15

000
FTUS43 KMPX 280520
TAFEAU
TAF
KEAU 280520Z 2806/2906 13005KT P6SM FEW060
      TEMPO 2810/2812 5SM BR
     FM281400 15011KT P6SM VCSH BKN060
      TEMPO 2815/2818 2SM -TSRA BR OVC020CB
     FM281800 16015G22KT P6SM -SHRA SCT020 OVC035
     FM282000 17016G23KT P6SM VCSH BKN035 OVC050
     FM290200 19012KT P6SM VCTS BKN040CB=

USA.gov is the U.S. government's official web portal to all federal, state and local government web resources and services.